sensor_id;sensor_type;location;lat;lon;timestamp;pressure;altitude;pressure_sealevel;temperature;humidity
76586;BME280;65251;51.022;13.736;2023-07-13T00:00:30;99070.50;;;22.26;46.06
76586;BME280;65251;51.022;13.736;2023-07-13T00:01:02;99076.44;;;22.28;45.98
76586;BME280;65251;51.022;13.736;2023-07-13T00:01:34;99072.94;;;22.27;46.60
76586;BME280;65251;51.022;13.736;2023-07-13T00:02:05;99060.16;;;22.28;46.24
76586;BME280;65251;51.022;13.736;2023-07-13T00:02:38;99067.50;;;22.27;45.96
76586;BME280;65251;51.022;13.736;2023-07-13T00:03:09;99068.31;;;22.28;45.83
76586;BME280;65251;51.022;13.736;2023-07-13T00:03:43;99062.88;;;22.28;46.03
76586;BME280;65251;51.022;13.736;2023-07-13T00:04:14;99061.25;;;22.27;45.71
76586;BME280;65251;51.022;13.736;2023-07-13T00:04:45;99058.53;;;22.27;46.61
76586;BME280;65251;51.022;13.736;2023-07-13T00:05:17;99059.34;;;22.27;46.00
76586;BME280;65251;51.022;13.736;2023-07-13T00:05:57;99061.53;;;22.25;46.57
76586;BME280;65251;51.022;13.736;2023-07-13T00:06:28;99061.00;;;22.23;46.84
76586;BME280;65251;51.022;13.736;2023-07-13T00:07:03;99056.69;;;22.22;46.03
76586;BME280;65251;51.022;13.736;2023-07-13T00:07:36;99064.53;;;22.24;46.15
76586;BME280;65251;51.022;13.736;2023-07-13T00:08:07;99070.25;;;22.22;46.10
76586;BME280;65251;51.022;13.736;2023-07-13T00:08:38;99065.63;;;22.23;46.52
76586;BME280;65251;51.022;13.736;2023-07-13T00:09:09;99071.06;;;22.23;46.21
76586;BME280;65251;51.022;13.736;2023-07-13T00:09:42;99064.81;;;22.22;46.06
76586;BME280;65251;51.022;13.736;2023-07-13T00:10:12;99070.25;;;22.22;45.72
76586;BME280;65251;51.022;13.736;2023-07-13T00:10:43;99064.81;;;22.22;45.60
76586;BME280;65251;51.022;13.736;2023-07-13T00:11:16;99071.34;;;22.21;45.89
76586;BME280;65251;51.022;13.736;2023-07-13T00:11:51;99074.88;;;22.22;45.64
76586;BME280;65251;51.022;13.736;2023-07-13T00:12:25;99072.97;;;22.22;45.86
76586;BME280;65251;51.022;13.736;2023-07-13T00:12:56;99069.72;;;22.20;46.16
76586;BME280;65251;51.022;13.736;2023-07-13T00:13:28;99071.34;;;22.21;46.19
76586;BME280;65251;51.022;13.736;2023-07-13T00:14:01;99070.81;;;22.19;46.12
76586;BME280;65251;51.022;13.736;2023-07-13T00:14:32;99078.69;;;22.21;45.72
76586;BME280;65251;51.022;13.736;2023-07-13T00:15:06;99081.38;;;22.21;46.19
76586;BME280;65251;51.022;13.736;2023-07-13T00:15:38;99078.16;;;22.19;46.19
76586;BME280;65251;51.022;13.736;2023-07-13T00:16:10;99084.09;;;22.21;46.00
76586;BME280;65251;51.022;13.736;2023-07-13T00:16:41;99078.69;;;22.21;46.23
76586;BME280;65251;51.022;13.736;2023-07-13T00:17:13;99081.91;;;22.23;46.36
76586;BME280;65251;51.022;13.736;2023-07-13T00:17:45;99082.72;;;22.23;46.25
76586;BME280;65251;51.022;13.736;2023-07-13T00:18:17;99082.72;;;22.23;46.31
76586;BME280;65251;51.022;13.736;2023-07-13T00:18:48;99088.41;;;22.27;46.11
76586;BME280;65251;51.022;13.736;2023-07-13T00:19:19;99084.06;;;22.26;46.16
76586;BME280;65251;51.022;13.736;2023-07-13T00:19:51;99080.53;;;22.25;46.58
76586;BME280;65251;51.022;13.736;2023-07-13T00:20:24;99088.41;;;22.27;46.72
76586;BME280;65251;51.022;13.736;2023-07-13T00:20:55;99091.94;;;22.27;46.12
76586;BME280;65251;51.022;13.736;2023-07-13T00:21:26;99085.69;;;22.27;45.95
76586;BME280;65251;51.022;13.736;2023-07-13T00:21:57;99083.78;;;22.27;46.22
76586;BME280;65251;51.022;13.736;2023-07-13T00:22:28;99092.22;;;22.26;46.26
76586;BME280;65251;51.022;13.736;2023-07-13T00:22:59;99090.59;;;22.25;46.91
76586;BME280;65251;51.022;13.736;2023-07-13T00:23:30;99093.56;;;22.28;46.17
76586;BME280;65251;51.022;13.736;2023-07-13T00:24:02;99097.06;;;22.29;45.97
76586;BME280;65251;51.022;13.736;2023-07-13T00:24:33;99105.22;;;22.29;45.65
76586;BME280;65251;51.022;13.736;2023-07-13T00:25:05;99108.75;;;22.29;45.95
76586;BME280;65251;51.022;13.736;2023-07-13T00:25:37;99107.13;;;22.28;45.69
76586;BME280;65251;51.022;13.736;2023-07-13T00:26:10;99105.75;;;22.31;45.96
76586;BME280;65251;51.022;13.736;2023-07-13T00:26:41;99113.88;;;22.31;46.28
76586;BME280;65251;51.022;13.736;2023-07-13T00:27:15;99111.97;;;22.31;45.78
76586;BME280;65251;51.022;13.736;2023-07-13T00:27:48;99117.69;;;22.30;46.19
76586;BME280;65251;51.022;13.736;2023-07-13T00:28:19;99120.94;;;22.32;46.31
76586;BME280;65251;51.022;13.736;2023-07-13T00:28:50;99120.41;;;22.30;46.19
76586;BME280;65251;51.022;13.736;2023-07-13T00:29:22;99117.69;;;22.30;46.94
76586;BME280;65251;51.022;13.736;2023-07-13T00:29:53;99123.94;;;22.30;46.88
76586;BME280;65251;51.022;13.736;2023-07-13T00:30:24;99119.59;;;22.29;46.48
76586;BME280;65251;51.022;13.736;2023-07-13T00:30:56;99121.50;;;22.29;47.59
76586;BME280;65251;51.022;13.736;2023-07-13T00:31:27;99122.59;;;22.28;47.50
76586;BME280;65251;51.022;13.736;2023-07-13T00:31:58;99121.78;;;22.27;48.01
76586;BME280;65251;51.022;13.736;2023-07-13T00:32:29;99123.97;;;22.25;48.89
76586;BME280;65251;51.022;13.736;2023-07-13T00:33:00;99129.16;;;22.22;49.40
76586;BME280;65251;51.022;13.736;2023-07-13T00:33:31;99129.72;;;22.19;49.53
76586;BME280;65251;51.022;13.736;2023-07-13T00:34:03;99127.59;;;22.16;49.98
76586;BME280;65251;51.022;13.736;2023-07-13T00:34:34;99133.31;;;22.14;50.29
76586;BME280;65251;51.022;13.736;2023-07-13T00:35:05;99135.78;;;22.11;50.31
76586;BME280;65251;51.022;13.736;2023-07-13T00:35:36;99142.03;;;22.06;51.01
76586;BME280;65251;51.022;13.736;2023-07-13T00:36:10;99142.06;;;22.01;51.92
76586;BME280;65251;51.022;13.736;2023-07-13T00:36:41;99146.13;;;21.98;51.80
76586;BME280;65251;51.022;13.736;2023-07-13T00:37:12;99149.44;;;21.95;51.77
76586;BME280;65251;51.022;13.736;2023-07-13T00:37:45;99145.38;;;21.93;52.49
76586;BME280;65251;51.022;13.736;2023-07-13T00:38:17;99144.91;;;21.81;54.08
76586;BME280;65251;51.022;13.736;2023-07-13T00:38:47;99159.53;;;21.80;53.59
76586;BME280;65251;51.022;13.736;2023-07-13T00:39:18;99155.25;;;21.74;54.46
76586;BME280;65251;51.022;13.736;2023-07-13T00:39:51;99153.75;;;21.57;55.46
76586;BME280;65251;51.022;13.736;2023-07-13T00:40:23;99159.19;;;21.52;55.31
76586;BME280;65251;51.022;13.736;2023-07-13T00:40:53;99163.81;;;21.47;55.59
76586;BME280;65251;51.022;13.736;2023-07-13T00:41:24;99162.47;;;21.39;56.68
76586;BME280;65251;51.022;13.736;2023-07-13T00:41:56;99162.53;;;21.34;55.91
76586;BME280;65251;51.022;13.736;2023-07-13T00:42:27;99160.34;;;21.31;56.07
76586;BME280;65251;51.022;13.736;2023-07-13T00:42:59;99174.47;;;21.23;57.06
76586;BME280;65251;51.022;13.736;2023-07-13T00:43:33;99168.53;;;21.06;56.56
76586;BME280;65251;51.022;13.736;2023-07-13T00:44:05;99178.84;;;21.04;58.31
76586;BME280;65251;51.022;13.736;2023-07-13T00:44:37;99177.25;;;20.97;58.73
76586;BME280;65251;51.022;13.736;2023-07-13T00:46:22;99180.78;;;20.83;59.41
76586;BME280;65251;51.022;13.736;2023-07-13T00:46:53;99179.19;;;20.77;59.43
76586;BME280;65251;51.022;13.736;2023-07-13T00:47:23;99183.53;;;20.73;59.64
76586;BME280;65251;51.022;13.736;2023-07-13T00:47:57;99171.06;;;20.61;60.00
76586;BME280;65251;51.022;13.736;2023-07-13T00:48:34;99175.44;;;20.57;62.04
76586;BME280;65251;51.022;13.736;2023-07-13T00:49:10;99180.56;;;20.54;60.32
76586;BME280;65251;51.022;13.736;2023-07-13T00:49:42;99171.09;;;20.51;61.31
76586;BME280;65251;51.022;13.736;2023-07-13T00:50:16;99176.78;;;20.45;61.59
76586;BME280;65251;51.022;13.736;2023-07-13T00:50:51;99178.38;;;20.41;60.51
76586;BME280;65251;51.022;13.736;2023-07-13T00:51:32;99171.34;;;20.35;61.27
76586;BME280;65251;51.022;13.736;2023-07-13T00:52:07;99172.16;;;20.30;60.82
76586;BME280;65251;51.022;13.736;2023-07-13T00:52:43;99178.38;;;20.25;62.82
76586;BME280;65251;51.022;13.736;2023-07-13T00:53:15;99175.38;;;20.27;61.87
76586;BME280;65251;51.022;13.736;2023-07-13T00:53:47;99167.28;;;20.27;61.20
76586;BME280;65251;51.022;13.736;2023-07-13T00:54:22;99169.44;;;20.30;63.26
76586;BME280;65251;51.022;13.736;2023-07-13T00:54:56;99168.34;;;20.26;64.46
76586;BME280;65251;51.022;13.736;2023-07-13T00:55:27;99164.00;;;20.20;62.41
76586;BME280;65251;51.022;13.736;2023-07-13T00:56:01;99168.34;;;20.11;62.65
76586;BME280;65251;51.022;13.736;2023-07-13T00:56:34;99164.28;;;20.08;64.81
76586;BME280;65251;51.022;13.736;2023-07-13T00:57:17;99161.56;;;20.03;62.60
76586;BME280;65251;51.022;13.736;2023-07-13T00:57:49;99160.22;;;19.95;63.55
76586;BME280;65251;51.022;13.736;2023-07-13T00:58:20;99158.03;;;19.87;64.35
76586;BME280;65251;51.022;13.736;2023-07-13T00:58:52;99155.88;;;19.84;63.87
76586;BME280;65251;51.022;13.736;2023-07-13T00:59:25;99152.34;;;19.79;65.13
76586;BME280;65251;51.022;13.736;2023-07-13T01:00:03;99153.72;;;19.76;63.92
76586;BME280;65251;51.022;13.736;2023-07-13T01:00:39;99147.19;;;19.72;64.39
76586;BME280;65251;51.022;13.736;2023-07-13T01:01:11;99134.22;;;19.69;65.41
76586;BME280;65251;51.022;13.736;2023-07-13T01:01:43;99135.00;;;19.65;66.75
76586;BME280;65251;51.022;13.736;2023-07-13T01:02:16;99130.41;;;19.65;65.17
76586;BME280;65251;51.022;13.736;2023-07-13T01:02:48;99120.16;;;19.67;65.01
76586;BME280;65251;51.022;13.736;2023-07-13T01:03:21;99118.81;;;19.70;64.66
76586;BME280;65251;51.022;13.736;2023-07-13T01:03:51;99112.59;;;19.69;66.42
76586;BME280;65251;51.022;13.736;2023-07-13T01:04:24;99101.78;;;19.74;65.68
76586;BME280;65251;51.022;13.736;2023-07-13T01:04:56;99101.53;;;19.76;63.47
76586;BME280;65251;51.022;13.736;2023-07-13T01:05:28;99092.31;;;19.72;62.23
76586;BME280;65251;51.022;13.736;2023-07-13T01:05:59;99089.88;;;19.70;61.80
76586;BME280;65251;51.022;13.736;2023-07-13T01:06:29;99090.69;;;19.71;62.19
76586;BME280;65251;51.022;13.736;2023-07-13T01:07:01;99087.44;;;19.69;64.62
76586;BME280;65251;51.022;13.736;2023-07-13T01:07:32;99091.50;;;19.66;64.28
76586;BME280;65251;51.022;13.736;2023-07-13T01:08:03;99090.13;;;19.64;65.02
76586;BME280;65251;51.022;13.736;2023-07-13T01:08:35;99088.78;;;19.61;65.28
76586;BME280;65251;51.022;13.736;2023-07-13T01:09:08;99090.13;;;19.58;64.80
76586;BME280;65251;51.022;13.736;2023-07-13T01:09:40;99092.84;;;19.53;65.83
76586;BME280;65251;51.022;13.736;2023-07-13T01:10:12;99092.56;;;19.50;65.61
76586;BME280;65251;51.022;13.736;2023-07-13T01:10:51;99088.47;;;19.47;67.39
76586;BME280;65251;51.022;13.736;2023-07-13T01:11:22;99098.44;;;19.42;66.57
76586;BME280;65251;51.022;13.736;2023-07-13T01:11:54;99096.00;;;19.40;67.14
76586;BME280;65251;51.022;13.736;2023-07-13T01:12:25;99093.84;;;19.37;66.71
76586;BME280;65251;51.022;13.736;2023-07-13T01:12:56;99083.81;;;19.27;68.63
76586;BME280;65251;51.022;13.736;2023-07-13T01:13:27;99091.41;;;19.31;69.32
76586;BME280;65251;51.022;13.736;2023-07-13T01:13:58;99097.59;;;19.26;68.79
76586;BME280;65251;51.022;13.736;2023-07-13T01:14:31;99098.94;;;19.23;69.09
76586;BME280;65251;51.022;13.736;2023-07-13T01:15:05;99100.81;;;19.18;69.20
76586;BME280;65251;51.022;13.736;2023-07-13T01:15:39;99101.59;;;19.13;68.75
76586;BME280;65251;51.022;13.736;2023-07-13T01:16:15;99101.06;;;19.11;68.85
76586;BME280;65251;51.022;13.736;2023-07-13T01:16:50;99108.06;;;19.07;68.86
76586;BME280;65251;51.022;13.736;2023-07-13T01:17:20;99109.13;;;19.06;68.17
76586;BME280;65251;51.022;13.736;2023-07-13T01:17:52;99101.56;;;19.03;68.61
76586;BME280;65251;51.022;13.736;2023-07-13T01:18:26;99104.78;;;19.00;69.08
76586;BME280;65251;51.022;13.736;2023-07-13T01:18:58;99105.84;;;18.94;67.22
76586;BME280;65251;51.022;13.736;2023-07-13T01:19:35;99106.09;;;18.92;67.01
76586;BME280;65251;51.022;13.736;2023-07-13T01:20:08;99110.44;;;18.93;69.13
76586;BME280;65251;51.022;13.736;2023-07-13T01:20:40;99113.41;;;18.92;67.85
76586;BME280;65251;51.022;13.736;2023-07-13T01:21:13;99108.53;;;18.94;66.59
76586;BME280;65251;51.022;13.736;2023-07-13T01:21:43;99109.88;;;18.91;67.14
76586;BME280;65251;51.022;13.736;2023-07-13T01:22:17;99116.34;;;18.90;66.89
76586;BME280;65251;51.022;13.736;2023-07-13T01:22:48;99120.69;;;18.91;67.17
76586;BME280;65251;51.022;13.736;2023-07-13T01:23:19;99116.66;;;18.94;67.66
76586;BME280;65251;51.022;13.736;2023-07-13T01:23:50;99114.47;;;18.91;69.25
76586;BME280;65251;51.022;13.736;2023-07-13T01:24:22;99115.53;;;18.90;68.07
76586;BME280;65251;51.022;13.736;2023-07-13T01:24:54;99114.72;;;18.89;69.00
76586;BME280;65251;51.022;13.736;2023-07-13T01:25:25;99108.75;;;18.77;70.94
76586;BME280;65251;51.022;13.736;2023-07-13T01:25:56;99114.66;;;18.74;71.01
76586;BME280;65251;51.022;13.736;2023-07-13T01:26:28;99115.13;;;18.66;71.04
76586;BME280;65251;51.022;13.736;2023-07-13T01:26:59;99105.69;;;18.64;70.91
76586;BME280;65251;51.022;13.736;2023-07-13T01:27:30;99107.00;;;18.61;70.26
76586;BME280;65251;51.022;13.736;2023-07-13T01:28:05;99105.69;;;18.64;69.04
76586;BME280;65251;51.022;13.736;2023-07-13T01:28:36;99106.50;;;18.64;69.81
76586;BME280;65251;51.022;13.736;2023-07-13T01:29:08;99109.47;;;18.68;68.75
76586;BME280;65251;51.022;13.736;2023-07-13T01:29:41;99109.22;;;18.69;68.54
76586;BME280;65251;51.022;13.736;2023-07-13T01:30:12;99107.34;;;18.70;68.40
76586;BME280;65251;51.022;13.736;2023-07-13T01:30:45;99108.16;;;18.70;68.24
76586;BME280;65251;51.022;13.736;2023-07-13T01:31:16;99112.47;;;18.71;68.29
76586;BME280;65251;51.022;13.736;2023-07-13T01:31:48;99110.34;;;18.73;67.06
76586;BME280;65251;51.022;13.736;2023-07-13T01:32:21;99117.91;;;18.76;67.17
76586;BME280;65251;51.022;13.736;2023-07-13T01:32:54;99115.78;;;18.78;67.75
76586;BME280;65251;51.022;13.736;2023-07-13T01:33:26;99116.28;;;18.80;67.63
76586;BME280;65251;51.022;13.736;2023-07-13T01:33:57;99111.97;;;18.79;70.12
76586;BME280;65251;51.022;13.736;2023-07-13T01:34:28;99109.00;;;18.76;70.66
76586;BME280;65251;51.022;13.736;2023-07-13T01:34:59;99113.59;;;18.75;71.06
76586;BME280;65251;51.022;13.736;2023-07-13T01:35:30;99109.78;;;18.71;71.35
76586;BME280;65251;51.022;13.736;2023-07-13T01:36:02;99106.53;;;18.69;71.21
76586;BME280;65251;51.022;13.736;2023-07-13T01:36:34;99114.31;;;18.66;71.87
76586;BME280;65251;51.022;13.736;2023-07-13T01:37:05;99104.88;;;18.63;71.42
76586;BME280;65251;51.022;13.736;2023-07-13T01:37:37;99109.75;;;18.66;69.49
76586;BME280;65251;51.022;13.736;2023-07-13T01:38:09;99110.28;;;18.68;68.66
76586;BME280;65251;51.022;13.736;2023-07-13T01:38:40;99106.53;;;18.69;69.07
76586;BME280;65251;51.022;13.736;2023-07-13T01:39:11;99107.91;;;18.72;70.02
76586;BME280;65251;51.022;13.736;2023-07-13T01:39:43;99110.34;;;18.73;69.47
76586;BME280;65251;51.022;13.736;2023-07-13T01:40:13;99103.00;;;18.69;70.78
76586;BME280;65251;51.022;13.736;2023-07-13T01:40:44;99103.78;;;18.64;70.51
76586;BME280;65251;51.022;13.736;2023-07-13T01:41:16;99112.09;;;18.57;71.94
76586;BME280;65251;51.022;13.736;2023-07-13T01:41:47;99105.09;;;18.56;69.99
76586;BME280;65251;51.022;13.736;2023-07-13T01:42:18;99106.94;;;18.51;71.04
76586;BME280;65251;51.022;13.736;2023-07-13T01:42:49;99105.31;;;18.50;70.80
76586;BME280;65251;51.022;13.736;2023-07-13T01:43:21;99103.66;;;18.49;71.37
76586;BME280;65251;51.022;13.736;2023-07-13T01:43:52;99108.00;;;18.50;69.93
76586;BME280;65251;51.022;13.736;2023-07-13T01:44:23;99106.41;;;18.54;70.31
76586;BME280;65251;51.022;13.736;2023-07-13T01:44:54;99108.84;;;18.55;70.19
76586;BME280;65251;51.022;13.736;2023-07-13T01:45:25;99104.81;;;18.58;70.48
76586;BME280;65251;51.022;13.736;2023-07-13T01:45:56;99114.28;;;18.61;72.67
76586;BME280;65251;51.022;13.736;2023-07-13T01:46:27;99102.97;;;18.64;71.83
76586;BME280;65251;51.022;13.736;2023-07-13T01:46:58;99106.22;;;18.66;70.42
76586;BME280;65251;51.022;13.736;2023-07-13T01:47:29;99106.53;;;18.69;70.22
76586;BME280;65251;51.022;13.736;2023-07-13T01:48:01;99114.91;;;18.73;70.10
76586;BME280;65251;51.022;13.736;2023-07-13T01:48:31;99113.03;;;18.73;69.55
76586;BME280;65251;51.022;13.736;2023-07-13T01:49:02;99115.47;;;18.75;70.83
76586;BME280;65251;51.022;13.736;2023-07-13T01:49:34;99117.34;;;18.74;71.98
76586;BME280;65251;51.022;13.736;2023-07-13T01:50:05;99115.66;;;18.63;71.63
76586;BME280;65251;51.022;13.736;2023-07-13T01:50:36;99115.41;;;18.65;71.12
76586;BME280;65251;51.022;13.736;2023-07-13T01:51:07;99116.47;;;18.64;71.55
76586;BME280;65251;51.022;13.736;2023-07-13T01:51:40;99116.72;;;18.62;70.65
76586;BME280;65251;51.022;13.736;2023-07-13T01:52:11;99117.53;;;18.63;69.88
76586;BME280;65251;51.022;13.736;2023-07-13T01:52:41;99114.31;;;18.66;70.24
76586;BME280;65251;51.022;13.736;2023-07-13T01:53:12;99120.53;;;18.66;70.98
76586;BME280;65251;51.022;13.736;2023-07-13T01:53:44;99115.94;;;18.67;70.75
76586;BME280;65251;51.022;13.736;2023-07-13T01:54:16;99113.00;;;18.68;70.53
76586;BME280;65251;51.022;13.736;2023-07-13T01:54:46;99106.53;;;18.69;70.80
76586;BME280;65251;51.022;13.736;2023-07-13T01:55:17;99115.19;;;18.71;70.35
76586;BME280;65251;51.022;13.736;2023-07-13T01:55:48;99096.03;;;18.73;70.86
76586;BME280;65251;51.022;13.736;2023-07-13T01:56:20;99104.34;;;18.66;71.71
76586;BME280;65251;51.022;13.736;2023-07-13T01:56:50;99104.88;;;18.63;72.82
76586;BME280;65251;51.022;13.736;2023-07-13T01:57:21;99096.22;;;18.61;71.64
76586;BME280;65251;51.022;13.736;2023-07-13T01:57:52;99102.13;;;18.58;72.17
76586;BME280;65251;51.022;13.736;2023-07-13T01:58:24;99095.66;;;18.59;72.07
76586;BME280;65251;51.022;13.736;2023-07-13T01:58:54;99102.91;;;18.58;71.52
76586;BME280;65251;51.022;13.736;2023-07-13T01:59:25;99094.59;;;18.60;71.45
76586;BME280;65251;51.022;13.736;2023-07-13T01:59:57;99097.28;;;18.60;70.82
76586;BME280;65251;51.022;13.736;2023-07-13T02:00:27;99099.72;;;18.62;71.33
76586;BME280;65251;51.022;13.736;2023-07-13T02:00:58;99097.03;;;18.62;72.40
76586;BME280;65251;51.022;13.736;2023-07-13T02:01:30;99089.47;;;18.64;72.24
76586;BME280;65251;51.022;13.736;2023-07-13T02:02:00;99088.94;;;18.62;72.90
76586;BME280;65251;51.022;13.736;2023-07-13T02:02:31;99090.56;;;18.63;73.17
76586;BME280;65251;51.022;13.736;2023-07-13T02:03:02;99092.41;;;18.57;72.25
76586;BME280;65251;51.022;13.736;2023-07-13T02:03:34;99085.94;;;18.58;71.93
76586;BME280;65251;51.022;13.736;2023-07-13T02:04:05;99088.88;;;18.56;72.30
76586;BME280;65251;51.022;13.736;2023-07-13T02:04:36;99100.47;;;18.52;72.36
76586;BME280;65251;51.022;13.736;2023-07-13T02:05:07;99086.97;;;18.52;71.37
76586;BME280;65251;51.022;13.736;2023-07-13T02:05:39;99098.28;;;18.49;72.21
76586;BME280;65251;51.022;13.736;2023-07-13T02:06:10;99100.72;;;18.50;71.73
76586;BME280;65251;51.022;13.736;2023-07-13T02:06:42;99097.72;;;18.47;71.99
76586;BME280;65251;51.022;13.736;2023-07-13T02:07:13;99100.16;;;18.48;72.32
76586;BME280;65251;51.022;13.736;2023-07-13T02:07:46;99103.38;;;18.45;70.78
76586;BME280;65251;51.022;13.736;2023-07-13T02:08:16;99099.88;;;18.45;72.10
76586;BME280;65251;51.022;13.736;2023-07-13T02:08:47;99104.16;;;18.41;71.60
76586;BME280;65251;51.022;13.736;2023-07-13T02:09:19;99099.56;;;18.41;72.08
76586;BME280;65251;51.022;13.736;2023-07-13T02:09:49;99099.56;;;18.41;71.52
76586;BME280;65251;51.022;13.736;2023-07-13T02:10:20;99107.66;;;18.36;71.82
76586;BME280;65251;51.022;13.736;2023-07-13T02:10:51;99102.25;;;18.36;71.76
76586;BME280;65251;51.022;13.736;2023-07-13T02:11:22;99099.81;;;18.35;71.95
76586;BME280;65251;51.022;13.736;2023-07-13T02:11:53;99095.78;;;18.37;72.06
76586;BME280;65251;51.022;13.736;2023-07-13T02:12:24;99102.53;;;18.40;71.50
76586;BME280;65251;51.022;13.736;2023-07-13T02:12:55;99100.63;;;18.40;71.18
76586;BME280;65251;51.022;13.736;2023-07-13T02:13:27;99101.19;;;18.42;71.15
76586;BME280;65251;51.022;13.736;2023-07-13T02:13:58;99105.00;;;18.46;71.11
76586;BME280;65251;51.022;13.736;2023-07-13T02:14:28;99097.72;;;18.47;70.01
76586;BME280;65251;51.022;13.736;2023-07-13T02:14:59;99095.31;;;18.50;70.60
76586;BME280;65251;51.022;13.736;2023-07-13T02:15:31;99096.44;;;18.54;70.61
76586;BME280;65251;51.022;13.736;2023-07-13T02:16:02;99100.75;;;18.55;69.80
76586;BME280;65251;51.022;13.736;2023-07-13T02:16:33;99096.19;;;18.56;69.13
76586;BME280;65251;51.022;13.736;2023-07-13T02:17:05;99101.88;;;18.59;69.24
76586;BME280;65251;51.022;13.736;2023-07-13T02:17:36;99092.44;;;18.62;69.50
76586;BME280;65251;51.022;13.736;2023-07-13T02:18:07;99097.31;;;18.65;68.77
76586;BME280;65251;51.022;13.736;2023-07-13T02:18:38;99096.00;;;18.68;68.83
76586;BME280;65251;51.022;13.736;2023-07-13T02:19:10;99094.41;;;18.72;69.43
76586;BME280;65251;51.022;13.736;2023-07-13T02:19:40;99093.84;;;18.70;72.41
76586;BME280;65251;51.022;13.736;2023-07-13T02:20:11;99095.72;;;18.69;71.99
76586;BME280;65251;51.022;13.736;2023-07-13T02:20:42;99094.41;;;18.72;71.79
76586;BME280;65251;51.022;13.736;2023-07-13T02:21:14;99094.13;;;18.73;70.01
76586;BME280;65251;51.022;13.736;2023-07-13T02:21:46;99096.81;;;18.68;71.62
76586;BME280;65251;51.022;13.736;2023-07-13T02:22:17;99093.50;;;18.61;71.84
76586;BME280;65251;51.022;13.736;2023-07-13T02:22:47;99091.34;;;18.58;71.82
76586;BME280;65251;51.022;13.736;2023-07-13T02:23:19;99099.38;;;18.53;71.94
76586;BME280;65251;51.022;13.736;2023-07-13T02:23:50;99093.44;;;18.51;72.88
76586;BME280;65251;51.022;13.736;2023-07-13T02:24:21;99092.59;;;18.45;72.61
76586;BME280;65251;51.022;13.736;2023-07-13T02:24:51;99084.19;;;18.42;73.26
76586;BME280;65251;51.022;13.736;2023-07-13T02:25:23;99089.28;;;18.33;74.08
76586;BME280;65251;51.022;13.736;2023-07-13T02:25:55;99086.56;;;18.33;73.81
76586;BME280;65251;51.022;13.736;2023-07-13T02:26:26;99091.72;;;18.35;73.52
76586;BME280;65251;51.022;13.736;2023-07-13T02:26:58;99093.91;;;18.38;72.36
76586;BME280;65251;51.022;13.736;2023-07-13T02:27:29;99094.44;;;18.40;71.92
76586;BME280;65251;51.022;13.736;2023-07-13T02:28:00;99094.16;;;18.41;71.40
76586;BME280;65251;51.022;13.736;2023-07-13T02:28:31;99095.28;;;18.45;71.87
76586;BME280;65251;51.022;13.736;2023-07-13T02:29:01;99104.75;;;18.48;71.46
76586;BME280;65251;51.022;13.736;2023-07-13T02:29:33;99099.91;;;18.50;70.73
76586;BME280;65251;51.022;13.736;2023-07-13T02:30:05;99100.47;;;18.52;70.82
76586;BME280;65251;51.022;13.736;2023-07-13T02:30:36;99110.75;;;18.55;70.95
76586;BME280;65251;51.022;13.736;2023-07-13T02:31:08;99102.38;;;18.56;70.32
76586;BME280;65251;51.022;13.736;2023-07-13T02:31:40;99097.50;;;18.58;70.44
76586;BME280;65251;51.022;13.736;2023-07-13T02:32:10;99108.06;;;18.60;70.43
76586;BME280;65251;51.022;13.736;2023-07-13T02:32:41;99105.09;;;18.56;72.77
76586;BME280;65251;51.022;13.736;2023-07-13T02:33:14;99102.09;;;18.53;72.11
76586;BME280;65251;51.022;13.736;2023-07-13T02:33:45;99107.75;;;18.51;72.00
76586;BME280;65251;51.022;13.736;2023-07-13T02:34:18;99109.09;;;18.54;71.36
76586;BME280;65251;51.022;13.736;2023-07-13T02:34:49;99104.50;;;18.49;72.08
76586;BME280;65251;51.022;13.736;2023-07-13T02:35:20;99103.66;;;18.49;71.56
76586;BME280;65251;51.022;13.736;2023-07-13T02:35:51;99096.31;;;18.39;72.00
76586;BME280;65251;51.022;13.736;2023-07-13T02:36:22;99099.00;;;18.34;72.45
76586;BME280;65251;51.022;13.736;2023-07-13T02:36:54;99098.44;;;18.32;72.62
76586;BME280;65251;51.022;13.736;2023-07-13T02:37:25;99100.88;;;18.34;72.43
76586;BME280;65251;51.022;13.736;2023-07-13T02:37:57;99092.19;;;18.27;72.21
76586;BME280;65251;51.022;13.736;2023-07-13T02:38:28;99101.66;;;18.29;73.18
76586;BME280;65251;51.022;13.736;2023-07-13T02:39:01;99101.34;;;18.25;73.38
76586;BME280;65251;51.022;13.736;2023-07-13T02:39:33;99094.88;;;18.27;73.05
76586;BME280;65251;51.022;13.736;2023-07-13T02:40:05;99103.22;;;18.25;73.36
76586;BME280;65251;51.022;13.736;2023-07-13T02:40:38;99111.31;;;18.25;73.33
76586;BME280;65251;51.022;13.736;2023-07-13T02:41:10;99110.00;;;18.28;72.59
76586;BME280;65251;51.022;13.736;2023-07-13T02:41:41;99108.97;;;18.34;71.61
76586;BME280;65251;51.022;13.736;2023-07-13T02:42:11;99108.47;;;18.37;71.68
76586;BME280;65251;51.022;13.736;2023-07-13T02:42:42;99114.13;;;18.40;72.13
76586;BME280;65251;51.022;13.736;2023-07-13T02:43:14;99112.25;;;18.41;72.51
76586;BME280;65251;51.022;13.736;2023-07-13T02:43:45;99112.78;;;18.43;72.06
76586;BME280;65251;51.022;13.736;2023-07-13T02:44:16;99116.56;;;18.42;72.08
76586;BME280;65251;51.022;13.736;2023-07-13T02:44:46;99114.72;;;18.47;71.42
76586;BME280;65251;51.022;13.736;2023-07-13T02:45:20;99120.69;;;18.49;69.94
76586;BME280;65251;51.022;13.736;2023-07-13T02:45:51;99116.66;;;18.52;70.14
76586;BME280;65251;51.022;13.736;2023-07-13T02:46:22;99114.22;;;18.50;70.73
76586;BME280;65251;51.022;13.736;2023-07-13T02:46:54;99118.31;;;18.58;71.64
76586;BME280;65251;51.022;13.736;2023-07-13T02:47:26;99115.63;;;18.58;70.32
76586;BME280;65251;51.022;13.736;2023-07-13T02:47:57;99122.38;;;18.61;70.88